sensor_id;sensor_type;location;lat;lon;timestamp;P1;durP1;ratioP1;P2;durP2;ratioP2
26269;SDS011;15937;50.612;6.656;2023-08-20T00:01:43;15.73;;;6.78;;
26269;SDS011;15937;50.612;6.656;2023-08-20T00:05:45;9.80;;;6.78;;
26269;SDS011;15937;50.612;6.656;2023-08-20T00:09:47;20.70;;;7.57;;
26269;SDS011;15937;50.612;6.656;2023-08-20T00:13:52;13.73;;;8.18;;
26269;SDS011;15937;50.612;6.656;2023-08-20T00:17:54;14.57;;;7.40;;
26269;SDS011;15937;50.612;6.656;2023-08-20T00:21:58;12.15;;;7.38;;
26269;SDS011;15937;50.612;6.656;2023-08-20T00:26:00;15.37;;;8.00;;
26269;SDS011;15937;50.612;6.656;2023-08-20T00:30:03;15.23;;;8.30;;
26269;SDS011;15937;50.612;6.656;2023-08-20T00:34:06;14.05;;;7.78;;
26269;SDS011;15937;50.612;6.656;2023-08-20T00:38:08;15.88;;;7.72;;
26269;SDS011;15937;50.612;6.656;2023-08-20T00:42:10;16.20;;;7.77;;
26269;SDS011;15937;50.612;6.656;2023-08-20T00:46:11;18.38;;;8.00;;
26269;SDS011;15937;50.612;6.656;2023-08-20T00:50:13;13.25;;;6.53;;
26269;SDS011;15937;50.612;6.656;2023-08-20T00:54:16;12.10;;;6.60;;
26269;SDS011;15937;50.612;6.656;2023-08-20T00:58:18;16.35;;;7.90;;
26269;SDS011;15937;50.612;6.656;2023-08-20T01:02:20;12.82;;;8.63;;
26269;SDS011;15937;50.612;6.656;2023-08-20T01:11:03;17.60;;;8.70;;
26269;SDS011;15937;50.612;6.656;2023-08-20T01:15:12;11.85;;;7.30;;
26269;SDS011;15937;50.612;6.656;2023-08-20T01:19:19;13.50;;;7.10;;
26269;SDS011;15937;50.612;6.656;2023-08-20T01:23:39;10.45;;;7.20;;
26269;SDS011;15937;50.612;6.656;2023-08-20T01:32:16;12.37;;;5.73;;
26269;SDS011;15937;50.612;6.656;2023-08-20T01:36:21;14.80;;;5.85;;
26269;SDS011;15937;50.612;6.656;2023-08-20T01:56:43;16.35;;;6.88;;
26269;SDS011;15937;50.612;6.656;2023-08-20T02:00:45;8.73;;;5.90;;
26269;SDS011;15937;50.612;6.656;2023-08-20T02:04:47;8.13;;;5.50;;
26269;SDS011;15937;50.612;6.656;2023-08-20T02:08:49;12.73;;;5.53;;
26269;SDS011;15937;50.612;6.656;2023-08-20T02:12:50;9.47;;;5.60;;
26269;SDS011;15937;50.612;6.656;2023-08-20T02:16:52;11.23;;;6.63;;
26269;SDS011;15937;50.612;6.656;2023-08-20T02:20:56;12.95;;;6.20;;
26269;SDS011;15937;50.612;6.656;2023-08-20T02:24:58;10.13;;;5.93;;
26269;SDS011;15937;50.612;6.656;2023-08-20T02:29:03;12.30;;;6.05;;
26269;SDS011;15937;50.612;6.656;2023-08-20T02:33:06;9.55;;;5.85;;
26269;SDS011;15937;50.612;6.656;2023-08-20T02:37:08;11.82;;;5.03;;
26269;SDS011;15937;50.612;6.656;2023-08-20T02:41:10;7.87;;;5.57;;
26269;SDS011;15937;50.612;6.656;2023-08-20T02:45:13;9.43;;;5.25;;
26269;SDS011;15937;50.612;6.656;2023-08-20T02:49:15;10.37;;;5.83;;
26269;SDS011;15937;50.612;6.656;2023-08-20T02:53:17;8.43;;;5.80;;
26269;SDS011;15937;50.612;6.656;2023-08-20T02:57:18;16.93;;;6.73;;
26269;SDS011;15937;50.612;6.656;2023-08-20T03:01:21;10.60;;;5.10;;
26269;SDS011;15937;50.612;6.656;2023-08-20T03:16:08;9.73;;;4.80;;
26269;SDS011;15937;50.612;6.656;2023-08-20T03:20:10;6.57;;;4.63;;
26269;SDS011;15937;50.612;6.656;2023-08-20T03:24:13;8.85;;;4.70;;
26269;SDS011;15937;50.612;6.656;2023-08-20T03:28:21;11.63;;;5.07;;
26269;SDS011;15937;50.612;6.656;2023-08-20T03:32:23;9.13;;;4.38;;
26269;SDS011;15937;50.612;6.656;2023-08-20T03:36:25;13.10;;;4.90;;
26269;SDS011;15937;50.612;6.656;2023-08-20T03:45:50;7.95;;;3.83;;
26269;SDS011;15937;50.612;6.656;2023-08-20T03:50:01;7.85;;;4.13;;
26269;SDS011;15937;50.612;6.656;2023-08-20T03:54:08;8.60;;;4.78;;
26269;SDS011;15937;50.612;6.656;2023-08-20T03:58:10;11.00;;;4.15;;
26269;SDS011;15937;50.612;6.656;2023-08-20T04:02:12;11.50;;;4.63;;
26269;SDS011;15937;50.612;6.656;2023-08-20T04:06:14;7.93;;;4.72;;
26269;SDS011;15937;50.612;6.656;2023-08-20T04:10:17;9.15;;;4.15;;
26269;SDS011;15937;50.612;6.656;2023-08-20T04:14:18;6.90;;;4.43;;
26269;SDS011;15937;50.612;6.656;2023-08-20T04:18:21;5.93;;;4.00;;
26269;SDS011;15937;50.612;6.656;2023-08-20T04:22:23;11.13;;;4.63;;
26269;SDS011;15937;50.612;6.656;2023-08-20T04:26:26;6.95;;;4.10;;
26269;SDS011;15937;50.612;6.656;2023-08-20T04:30:28;7.20;;;4.17;;
26269;SDS011;15937;50.612;6.656;2023-08-20T04:34:34;8.20;;;4.57;;
26269;SDS011;15937;50.612;6.656;2023-08-20T04:38:37;6.05;;;3.90;;
26269;SDS011;15937;50.612;6.656;2023-08-20T04:42:39;11.85;;;4.40;;
26269;SDS011;15937;50.612;6.656;2023-08-20T04:46:42;6.07;;;3.93;;
26269;SDS011;15937;50.612;6.656;2023-08-20T04:50:44;11.30;;;4.45;;
26269;SDS011;15937;50.612;6.656;2023-08-20T04:54:47;11.27;;;4.87;;
26269;SDS011;15937;50.612;6.656;2023-08-20T04:58:48;5.90;;;3.90;;
26269;SDS011;15937;50.612;6.656;2023-08-20T05:02:50;15.07;;;4.77;;
26269;SDS011;15937;50.612;6.656;2023-08-20T05:06:52;11.57;;;5.33;;
26269;SDS011;15937;50.612;6.656;2023-08-20T05:10:54;27.87;;;11.00;;
26269;SDS011;15937;50.612;6.656;2023-08-20T05:14:56;9.80;;;4.67;;
26269;SDS011;15937;50.612;6.656;2023-08-20T05:18:57;14.20;;;4.47;;
26269;SDS011;15937;50.612;6.656;2023-08-20T05:22:59;20.60;;;7.63;;
26269;SDS011;15937;50.612;6.656;2023-08-20T05:27:05;9.20;;;4.17;;
26269;SDS011;15937;50.612;6.656;2023-08-20T05:31:10;7.55;;;4.03;;
26269;SDS011;15937;50.612;6.656;2023-08-20T05:35:15;5.55;;;3.90;;
26269;SDS011;15937;50.612;6.656;2023-08-20T05:39:17;8.73;;;4.33;;
26269;SDS011;15937;50.612;6.656;2023-08-20T05:43:19;9.15;;;4.85;;
26269;SDS011;15937;50.612;6.656;2023-08-20T05:47:21;7.83;;;4.40;;
26269;SDS011;15937;50.612;6.656;2023-08-20T05:51:23;11.20;;;5.53;;
26269;SDS011;15937;50.612;6.656;2023-08-20T05:55:25;12.23;;;4.30;;
26269;SDS011;15937;50.612;6.656;2023-08-20T05:59:26;5.13;;;4.03;;
26269;SDS011;15937;50.612;6.656;2023-08-20T06:03:28;5.93;;;4.22;;
26269;SDS011;15937;50.612;6.656;2023-08-20T06:07:30;15.73;;;4.03;;
26269;SDS011;15937;50.612;6.656;2023-08-20T06:11:32;6.18;;;4.05;;
26269;SDS011;15937;50.612;6.656;2023-08-20T06:15:34;7.53;;;4.33;;
26269;SDS011;15937;50.612;6.656;2023-08-20T06:19:36;9.23;;;3.93;;
26269;SDS011;15937;50.612;6.656;2023-08-20T06:23:39;9.73;;;3.58;;
26269;SDS011;15937;50.612;6.656;2023-08-20T06:27:44;6.43;;;4.03;;
26269;SDS011;15937;50.612;6.656;2023-08-20T06:31:47;8.13;;;3.83;;
26269;SDS011;15937;50.612;6.656;2023-08-20T06:35:49;8.98;;;3.78;;
26269;SDS011;15937;50.612;6.656;2023-08-20T06:39:51;10.13;;;4.20;;
26269;SDS011;15937;50.612;6.656;2023-08-20T06:43:53;9.53;;;4.23;;
26269;SDS011;15937;50.612;6.656;2023-08-20T06:47:55;11.93;;;4.60;;
26269;SDS011;15937;50.612;6.656;2023-08-20T06:51:56;8.20;;;3.90;;
26269;SDS011;15937;50.612;6.656;2023-08-20T06:55:58;6.32;;;4.38;;
26269;SDS011;15937;50.612;6.656;2023-08-20T07:00:00;9.47;;;4.30;;
26269;SDS011;15937;50.612;6.656;2023-08-20T07:04:02;6.63;;;3.75;;
26269;SDS011;15937;50.612;6.656;2023-08-20T07:12:06;5.82;;;3.60;;
26269;SDS011;15937;50.612;6.656;2023-08-20T07:16:08;7.15;;;3.45;;
26269;SDS011;15937;50.612;6.656;2023-08-20T07:24:15;6.25;;;3.47;;
26269;SDS011;15937;50.612;6.656;2023-08-20T07:28:19;6.70;;;4.07;;
26269;SDS011;15937;50.612;6.656;2023-08-20T07:32:30;6.38;;;3.83;;
26269;SDS011;15937;50.612;6.656;2023-08-20T07:36:32;5.97;;;3.80;;
26269;SDS011;15937;50.612;6.656;2023-08-20T07:40:34;10.23;;;4.25;;
26269;SDS011;15937;50.612;6.656;2023-08-20T07:44:37;7.20;;;4.13;;
26269;SDS011;15937;50.612;6.656;2023-08-20T07:48:38;7.80;;;3.55;;
26269;SDS011;15937;50.612;6.656;2023-08-20T07:52:40;8.73;;;4.47;;
26269;SDS011;15937;50.612;6.656;2023-08-20T07:56:42;6.25;;;4.35;;
26269;SDS011;15937;50.612;6.656;2023-08-20T08:00:44;5.70;;;3.78;;
26269;SDS011;15937;50.612;6.656;2023-08-20T08:04:46;8.52;;;4.30;;
26269;SDS011;15937;50.612;6.656;2023-08-20T08:08:47;15.85;;;4.55;;
26269;SDS011;15937;50.612;6.656;2023-08-20T08:12:49;11.25;;;4.60;;
26269;SDS011;15937;50.612;6.656;2023-08-20T08:16:51;11.57;;;4.78;;
26269;SDS011;15937;50.612;6.656;2023-08-20T08:20:53;8.55;;;3.97;;
26269;SDS011;15937;50.612;6.656;2023-08-20T08:24:55;10.90;;;4.30;;
26269;SDS011;15937;50.612;6.656;2023-08-20T08:28:57;9.35;;;3.72;;
26269;SDS011;15937;50.612;6.656;2023-08-20T08:33:01;10.52;;;4.68;;
26269;SDS011;15937;50.612;6.656;2023-08-20T08:37:03;8.90;;;4.05;;
26269;SDS011;15937;50.612;6.656;2023-08-20T08:41:05;7.22;;;4.38;;
26269;SDS011;15937;50.612;6.656;2023-08-20T08:45:11;8.52;;;4.05;;
26269;SDS011;15937;50.612;6.656;2023-08-20T08:49:15;10.18;;;4.22;;
26269;SDS011;15937;50.612;6.656;2023-08-20T08:53:18;10.68;;;4.18;;
26269;SDS011;15937;50.612;6.656;2023-08-20T08:57:20;10.20;;;3.92;;
26269;SDS011;15937;50.612;6.656;2023-08-20T09:01:22;8.10;;;3.90;;
26269;SDS011;15937;50.612;6.656;2023-08-20T09:05:24;8.70;;;4.55;;
26269;SDS011;15937;50.612;6.656;2023-08-20T09:09:26;8.73;;;3.80;;
26269;SDS011;15937;50.612;6.656;2023-08-20T09:13:38;10.32;;;4.93;;
26269;SDS011;15937;50.612;6.656;2023-08-20T09:17:42;10.60;;;4.80;;
26269;SDS011;15937;50.612;6.656;2023-08-20T09:21:45;8.70;;;4.40;;
26269;SDS011;15937;50.612;6.656;2023-08-20T09:25:48;12.27;;;4.78;;
26269;SDS011;15937;50.612;6.656;2023-08-20T09:29:51;9.52;;;4.22;;
26269;SDS011;15937;50.612;6.656;2023-08-20T09:33:53;11.50;;;4.35;;
26269;SDS011;15937;50.612;6.656;2023-08-20T09:37:59;8.82;;;4.20;;
26269;SDS011;15937;50.612;6.656;2023-08-20T09:42:02;9.25;;;3.75;;
26269;SDS011;15937;50.612;6.656;2023-08-20T09:46:06;12.05;;;4.15;;
26269;SDS011;15937;50.612;6.656;2023-08-20T09:50:11;6.03;;;4.00;;
26269;SDS011;15937;50.612;6.656;2023-08-20T09:54:19;8.82;;;5.03;;
26269;SDS011;15937;50.612;6.656;2023-08-20T09:58:27;13.93;;;4.82;;
26269;SDS011;15937;50.612;6.656;2023-08-20T10:02:31;9.02;;;4.20;;
26269;SDS011;15937;50.612;6.656;2023-08-20T10:06:34;9.27;;;4.82;;
26269;SDS011;15937;50.612;6.656;2023-08-20T10:10:38;10.65;;;4.13;;
26269;SDS011;15937;50.612;6.656;2023-08-20T10:14:40;8.40;;;4.72;;
26269;SDS011;15937;50.612;6.656;2023-08-20T10:18:42;9.00;;;4.47;;
26269;SDS011;15937;50.612;6.656;2023-08-20T10:22:44;8.93;;;5.10;;
26269;SDS011;15937;50.612;6.656;2023-08-20T10:26:47;11.20;;;4.78;;
26269;SDS011;15937;50.612;6.656;2023-08-20T10:31:25;11.85;;;3.92;;
26269;SDS011;15937;50.612;6.656;2023-08-20T10:39:39;13.60;;;4.40;;
26269;SDS011;15937;50.612;6.656;2023-08-20T10:43:47;7.97;;;3.85;;
26269;SDS011;15937;50.612;6.656;2023-08-20T10:47:53;7.82;;;3.38;;
26269;SDS011;15937;50.612;6.656;2023-08-20T10:56:11;6.60;;;4.20;;
26269;SDS011;15937;50.612;6.656;2023-08-20T11:00:17;6.20;;;3.90;;
26269;SDS011;15937;50.612;6.656;2023-08-20T11:04:19;7.50;;;4.10;;
26269;SDS011;15937;50.612;6.656;2023-08-20T11:08:22;9.75;;;5.90;;
26269;SDS011;15937;50.612;6.656;2023-08-20T11:12:24;9.77;;;4.78;;
26269;SDS011;15937;50.612;6.656;2023-08-20T11:16:26;11.52;;;4.97;;
26269;SDS011;15937;50.612;6.656;2023-08-20T11:20:28;6.35;;;3.88;;
26269;SDS011;15937;50.612;6.656;2023-08-20T11:24:32;8.30;;;3.88;;
26269;SDS011;15937;50.612;6.656;2023-08-20T11:28:34;10.43;;;3.65;;
26269;SDS011;15937;50.612;6.656;2023-08-20T11:32:36;13.57;;;3.97;;
26269;SDS011;15937;50.612;6.656;2023-08-20T11:40:43;4.50;;;3.65;;
26269;SDS011;15937;50.612;6.656;2023-08-20T11:44:47;6.53;;;3.38;;
26269;SDS011;15937;50.612;6.656;2023-08-20T11:49:03;6.10;;;3.75;;
26269;SDS011;15937;50.612;6.656;2023-08-20T11:53:09;6.47;;;3.72;;
26269;SDS011;15937;50.612;6.656;2023-08-20T11:57:11;9.10;;;3.58;;
26269;SDS011;15937;50.612;6.656;2023-08-20T12:01:13;6.78;;;3.90;;
26269;SDS011;15937;50.612;6.656;2023-08-20T12:05:18;8.70;;;3.70;;
26269;SDS011;15937;50.612;6.656;2023-08-20T12:09:21;10.05;;;4.18;;
26269;SDS011;15937;50.612;6.656;2023-08-20T12:13:23;6.32;;;3.92;;
26269;SDS011;15937;50.612;6.656;2023-08-20T12:17:25;6.72;;;3.65;;
26269;SDS011;15937;50.612;6.656;2023-08-20T12:21:28;6.90;;;4.07;;
26269;SDS011;15937;50.612;6.656;2023-08-20T12:25:31;7.40;;;3.78;;
26269;SDS011;15937;50.612;6.656;2023-08-20T12:29:35;4.90;;;3.55;;
26269;SDS011;15937;50.612;6.656;2023-08-20T12:37:38;8.10;;;4.53;;
26269;SDS011;15937;50.612;6.656;2023-08-20T12:41:40;4.90;;;3.15;;
26269;SDS011;15937;50.612;6.656;2023-08-20T12:49:46;11.73;;;4.10;;
26269;SDS011;15937;50.612;6.656;2023-08-20T12:53:48;5.68;;;4.47;;
26269;SDS011;15937;50.612;6.656;2023-08-20T12:57:56;7.53;;;4.32;;
26269;SDS011;15937;50.612;6.656;2023-08-20T13:02:00;6.90;;;3.90;;
26269;SDS011;15937;50.612;6.656;2023-08-20T13:06:02;8.13;;;4.13;;
26269;SDS011;15937;50.612;6.656;2023-08-20T13:10:04;7.15;;;5.55;;
26269;SDS011;15937;50.612;6.656;2023-08-20T13:14:07;7.32;;;4.40;;
26269;SDS011;15937;50.612;6.656;2023-08-20T13:18:09;6.82;;;3.90;;
26269;SDS011;15937;50.612;6.656;2023-08-20T13:22:11;9.88;;;4.05;;
26269;SDS011;15937;50.612;6.656;2023-08-20T13:26:13;5.32;;;3.60;;
26269;SDS011;15937;50.612;6.656;2023-08-20T13:30:15;6.82;;;4.30;;
26269;SDS011;15937;50.612;6.656;2023-08-20T13:34:16;8.77;;;3.53;;
26269;SDS011;15937;50.612;6.656;2023-08-20T13:38:18;7.25;;;4.25;;
26269;SDS011;15937;50.612;6.656;2023-08-20T13:42:23;9.27;;;4.60;;
26269;SDS011;15937;50.612;6.656;2023-08-20T13:50:27;7.53;;;4.68;;
26269;SDS011;15937;50.612;6.656;2023-08-20T13:58:32;10.60;;;4.30;;
26269;SDS011;15937;50.612;6.656;2023-08-20T14:02:33;6.57;;;3.80;;
26269;SDS011;15937;50.612;6.656;2023-08-20T14:06:36;8.40;;;4.53;;
26269;SDS011;15937;50.612;6.656;2023-08-20T14:10:40;6.82;;;4.32;;
26269;SDS011;15937;50.612;6.656;2023-08-20T14:14:42;6.07;;;4.07;;
26269;SDS011;15937;50.612;6.656;2023-08-20T14:18:44;14.98;;;4.03;;
26269;SDS011;15937;50.612;6.656;2023-08-20T14:22:46;9.25;;;3.95;;
26269;SDS011;15937;50.612;6.656;2023-08-20T14:30:49;6.30;;;4.07;;
26269;SDS011;15937;50.612;6.656;2023-08-20T14:34:55;9.85;;;4.53;;
26269;SDS011;15937;50.612;6.656;2023-08-20T14:38:57;7.50;;;4.43;;
26269;SDS011;15937;50.612;6.656;2023-08-20T14:42:59;9.32;;;4.18;;
26269;SDS011;15937;50.612;6.656;2023-08-20T14:47:01;6.88;;;4.10;;
26269;SDS011;15937;50.612;6.656;2023-08-20T14:51:02;11.50;;;4.57;;
26269;SDS011;15937;50.612;6.656;2023-08-20T14:55:04;8.52;;;5.07;;
26269;SDS011;15937;50.612;6.656;2023-08-20T14:59:09;6.50;;;4.28;;
26269;SDS011;15937;50.612;6.656;2023-08-20T15:07:13;9.20;;;5.25;;
26269;SDS011;15937;50.612;6.656;2023-08-20T15:11:15;6.57;;;4.78;;
26269;SDS011;15937;50.612;6.656;2023-08-20T15:19:19;8.60;;;4.70;;
26269;SDS011;15937;50.612;6.656;2023-08-20T15:31:26;7.20;;;4.00;;
26269;SDS011;15937;50.612;6.656;2023-08-20T15:35:30;9.43;;;4.40;;
26269;SDS011;15937;50.612;6.656;2023-08-20T15:39:32;14.48;;;5.00;;
26269;SDS011;15937;50.612;6.656;2023-08-20T15:43:35;8.75;;;4.05;;
26269;SDS011;15937;50.612;6.656;2023-08-20T15:47:39;13.38;;;5.60;;
26269;SDS011;15937;50.612;6.656;2023-08-20T15:59:46;10.88;;;3.95;;
26269;SDS011;15937;50.612;6.656;2023-08-20T16:03:49;9.15;;;3.65;;
26269;SDS011;15937;50.612;6.656;2023-08-20T16:07:51;8.50;;;4.53;;
26269;SDS011;15937;50.612;6.656;2023-08-20T16:11:52;8.15;;;4.53;;
26269;SDS011;15937;50.612;6.656;2023-08-20T16:19:56;8.27;;;4.28;;
26269;SDS011;15937;50.612;6.656;2023-08-20T16:24:00;7.90;;;3.90;;
26269;SDS011;15937;50.612;6.656;2023-08-20T16:32:04;6.70;;;4.10;;
26269;SDS011;15937;50.612;6.656;2023-08-20T16:36:05;11.68;;;4.28;;
26269;SDS011;15937;50.612;6.656;2023-08-20T16:40:08;8.02;;;3.70;;
26269;SDS011;15937;50.612;6.656;2023-08-20T16:44:23;6.30;;;3.40;;
26269;SDS011;15937;50.612;6.656;2023-08-20T16:48:26;8.23;;;4.50;;
26269;SDS011;15937;50.612;6.656;2023-08-20T16:52:33;12.63;;;4.00;;
26269;SDS011;15937;50.612;6.656;2023-08-20T16:56:35;7.00;;;3.30;;
26269;SDS011;15937;50.612;6.656;2023-08-20T17:00:36;4.63;;;2.97;;
26269;SDS011;15937;50.612;6.656;2023-08-20T17:04:38;11.38;;;4.07;;
26269;SDS011;15937;50.612;6.656;2023-08-20T17:08:40;7.43;;;2.88;;
26269;SDS011;15937;50.612;6.656;2023-08-20T17:12:42;4.40;;;2.70;;
26269;SDS011;15937;50.612;6.656;2023-08-20T17:16:44;5.72;;;3.10;;
26269;SDS011;15937;50.612;6.656;2023-08-20T17:20:46;7.28;;;3.08;;
26269;SDS011;15937;50.612;6.656;2023-08-20T17:24:48;9.10;;;3.28;;
26269;SDS011;15937;50.612;6.656;2023-08-20T17:28:50;10.02;;;2.85;;
26269;SDS011;15937;50.612;6.656;2023-08-20T17:32:52;5.72;;;2.88;;
26269;SDS011;15937;50.612;6.656;2023-08-20T17:36:54;5.53;;;2.63;;
26269;SDS011;15937;50.612;6.656;2023-08-20T17:40:57;12.40;;;3.05;;
26269;SDS011;15937;50.612;6.656;2023-08-20T17:44:59;4.25;;;2.50;;
26269;SDS011;15937;50.612;6.656;2023-08-20T17:49:01;11.98;;;2.83;;
26269;SDS011;15937;50.612;6.656;2023-08-20T17:57:06;5.60;;;2.60;;
26269;SDS011;15937;50.612;6.656;2023-08-20T18:01:07;5.30;;;2.85;;
26269;SDS011;15937;50.612;6.656;2023-08-20T18:05:09;6.05;;;2.88;;
26269;SDS011;15937;50.612;6.656;2023-08-20T18:09:12;6.35;;;3.35;;
26269;SDS011;15937;50.612;6.656;2023-08-20T18:13:14;6.80;;;2.95;;
26269;SDS011;15937;50.612;6.656;2023-08-20T18:17:16;5.55;;;2.75;;
26269;SDS011;15937;50.612;6.656;2023-08-20T18:21:18;9.85;;;3.50;;
26269;SDS011;15937;50.612;6.656;2023-08-20T18:25:20;5.25;;;2.92;;
26269;SDS011;15937;50.612;6.656;2023-08-20T18:29:22;5.95;;;2.50;;
26269;SDS011;15937;50.612;6.656;2023-08-20T18:37:28;5.38;;;3.10;;
26269;SDS011;15937;50.612;6.656;2023-08-20T18:41:31;9.52;;;3.10;;
26269;SDS011;15937;50.612;6.656;2023-08-20T18:45:33;9.93;;;2.97;;
26269;SDS011;15937;50.612;6.656;2023-08-20T18:49:35;5.80;;;2.53;;
26269;SDS011;15937;50.612;6.656;2023-08-20T18:53:37;11.20;;;2.92;;
26269;SDS011;15937;50.612;6.656;2023-08-20T18:57:39;10.18;;;3.17;;
26269;SDS011;15937;50.612;6.656;2023-08-20T19:01:41;8.50;;;3.13;;
26269;SDS011;15937;50.612;6.656;2023-08-20T19:05:43;8.07;;;3.10;;
26269;SDS011;15937;50.612;6.656;2023-08-20T19:09:46;7.45;;;2.72;;
26269;SDS011;15937;50.612;6.656;2023-08-20T19:13:48;14.70;;;5.95;;
26269;SDS011;15937;50.612;6.656;2023-08-20T19:17:50;18.83;;;8.38;;
26269;SDS011;15937;50.612;6.656;2023-08-20T19:21:51;10.15;;;4.72;;
26269;SDS011;15937;50.612;6.656;2023-08-20T19:25:53;15.65;;;7.75;;
26269;SDS011;15937;50.612;6.656;2023-08-20T19:29:55;5.30;;;3.28;;
26269;SDS011;15937;50.612;6.656;2023-08-20T19:33:58;9.75;;;5.00;;
26269;SDS011;15937;50.612;6.656;2023-08-20T19:38:00;13.23;;;5.05;;
26269;SDS011;15937;50.612;6.656;2023-08-20T19:42:02;8.45;;;4.13;;
26269;SDS011;15937;50.612;6.656;2023-08-20T19:46:05;8.77;;;3.40;;
26269;SDS011;15937;50.612;6.656;2023-08-20T19:50:07;17.42;;;5.50;;
26269;SDS011;15937;50.612;6.656;2023-08-20T19:54:09;7.15;;;3.72;;
26269;SDS011;15937;50.612;6.656;2023-08-20T19:58:11;7.15;;;3.35;;
26269;SDS011;15937;50.612;6.656;2023-08-20T20:02:13;9.50;;;4.88;;
26269;SDS011;15937;50.612;6.656;2023-08-20T20:06:15;6.97;;;3.97;;
26269;SDS011;15937;50.612;6.656;2023-08-20T20:10:16;6.65;;;3.67;;
26269;SDS011;15937;50.612;6.656;2023-08-20T20:14:18;8.93;;;4.60;;
26269;SDS011;15937;50.612;6.656;2023-08-20T20:18:20;9.65;;;3.53;;
26269;SDS011;15937;50.612;6.656;2023-08-20T20:22:24;4.97;;;3.25;;
26269;SDS011;15937;50.612;6.656;2023-08-20T20:26:27;7.03;;;4.18;;
26269;SDS011;15937;50.612;6.656;2023-08-20T20:30:32;21.33;;;6.32;;
26269;SDS011;15937;50.612;6.656;2023-08-20T20:34:34;10.23;;;6.35;;
26269;SDS011;15937;50.612;6.656;2023-08-20T20:38:35;8.52;;;4.00;;
26269;SDS011;15937;50.612;6.656;2023-08-20T20:42:37;9.57;;;3.60;;
26269;SDS011;15937;50.612;6.656;2023-08-20T20:46:43;7.38;;;3.85;;
26269;SDS011;15937;50.612;6.656;2023-08-20T20:50:45;9.82;;;3.78;;
26269;SDS011;15937;50.612;6.656;2023-08-20T20:54:47;16.02;;;3.92;;
26269;SDS011;15937;50.612;6.656;2023-08-20T20:58:48;14.20;;;5.30;;
26269;SDS011;15937;50.612;6.656;2023-08-20T21:02:52;7.65;;;3.53;;
26269;SDS011;15937;50.612;6.656;2023-08-20T21:06:55;12.40;;;4.72;;
26269;SDS011;15937;50.612;6.656;2023-08-20T21:10:59;8.88;;;4.70;;
26269;SDS011;15937;50.612;6.656;2023-08-20T21:15:01;17.38;;;5.25;;
26269;SDS011;15937;50.612;6.656;2023-08-20T21:19:03;7.75;;;4.05;;
26269;SDS011;15937;50.612;6.656;2023-08-20T21:23:05;8.43;;;4.03;;
26269;SDS011;15937;50.612;6.656;2023-08-20T21:27:07;9.02;;;5.03;;
26269;SDS011;15937;50.612;6.656;2023-08-20T21:31:09;9.20;;;5.63;;
26269;SDS011;15937;50.612;6.656;2023-08-20T21:35:11;9.82;;;4.63;;
26269;SDS011;15937;50.612;6.656;2023-08-20T21:39:13;7.15;;;4.40;;
26269;SDS011;15937;50.612;6.656;2023-08-20T21:43:14;11.60;;;5.57;;
26269;SDS011;15937;50.612;6.656;2023-08-20T21:47:25;15.18;;;4.28;;
26269;SDS011;15937;50.612;6.656;2023-08-20T21:51:28;9.25;;;5.75;;
26269;SDS011;15937;50.612;6.656;2023-08-20T21:55:30;7.60;;;4.73;;
26269;SDS011;15937;50.612;6.656;2023-08-20T21:59:32;8.93;;;4.93;;
26269;SDS011;15937;50.612;6.656;2023-08-20T22:03:33;8.48;;;5.00;;
26269;SDS011;15937;50.612;6.656;2023-08-20T22:07:35;15.32;;;5.47;;
26269;SDS011;15937;50.612;6.656;2023-08-20T22:11:37;9.43;;;4.93;;
26269;SDS011;15937;50.612;6.656;2023-08-20T22:15:39;11.55;;;5.40;;
26269;SDS011;15937;50.612;6.656;2023-08-20T22:27:46;18.45;;;5.47;;
26269;SDS011;15937;50.612;6.656;2023-08-20T22:31:48;14.17;;;5.03;;
26269;SDS011;15937;50.612;6.656;2023-08-20T22:35:50;15.23;;;5.20;;
26269;SDS011;15937;50.612;6.656;2023-08-20T22:39:52;10.38;;;6.38;;
26269;SDS011;15937;50.612;6.656;2023-08-20T22:43:54;13.43;;;5.30;;
26269;SDS011;15937;50.612;6.656;2023-08-20T22:47:56;10.35;;;5.45;;
26269;SDS011;15937;50.612;6.656;2023-08-20T22:52:01;11.88;;;5.88;;
26269;SDS011;15937;50.612;6.656;2023-08-20T22:56:03;12.68;;;5.55;;
26269;SDS011;15937;50.612;6.656;2023-08-20T23:00:05;14.10;;;5.80;;
26269;SDS011;15937;50.612;6.656;2023-08-20T23:04:09;11.93;;;5.38;;
26269;SDS011;15937;50.612;6.656;2023-08-20T23:08:11;11.57;;;5.97;;
26269;SDS011;15937;50.612;6.656;2023-08-20T23:12:12;11.63;;;5.40;;
26269;SDS011;15937;50.612;6.656;2023-08-20T23:16:14;12.33;;;5.67;;
26269;SDS011;15937;50.612;6.656;2023-08-20T23:20:16;17.93;;;6.10;;
26269;SDS011;15937;50.612;6.656;2023-08-20T23:24:18;11.53;;;5.63;;
26269;SDS011;15937;50.612;6.656;2023-08-20T23:28:21;8.75;;;5.70;;
26269;SDS011;15937;50.612;6.656;2023-08-20T23:32:25;8.52;;;5.45;;
26269;SDS011;15937;50.612;6.656;2023-08-20T23:36:27;12.35;;;4.80;;
26269;SDS011;15937;50.612;6.656;2023-08-20T23:40:29;12.40;;;5.95;;
26269;SDS011;15937;50.612;6.656;2023-08-20T23:44:30;8.00;;;5.90;;
26269;SDS011;15937;50.612;6.656;2023-08-20T23:48:32;11.13;;;6.05;;
26269;SDS011;15937;50.612;6.656;2023-08-20T23:52:34;9.57;;;5.63;;
